createdAt,value
2022-09-21T00:01:40.071Z,83.14
2022-09-21T00:06:43.018Z,84.35
2022-09-21T00:11:47.283Z,82.85
2022-09-21T00:16:50.188Z,83.26
2022-09-21T00:21:56.093Z,82.96
2022-09-21T00:27:00.367Z,82.75
2022-09-21T00:32:03.531Z,83.25
2022-09-21T00:37:06.443Z,83.50
2022-09-21T00:42:11.376Z,83.22
2022-09-21T00:47:17.373Z,82.14
2022-09-21T00:52:22.113Z,81.94
2022-09-21T00:57:31.039Z,80.12
2022-09-21T01:02:35.225Z,80.69
2022-09-21T01:07:44.109Z,81.84
2022-09-21T01:13:06.178Z,81.80
2022-09-21T01:18:18.232Z,80.48
2022-09-21T01:23:42.777Z,80.81
2022-09-21T01:29:23.527Z,81.29
2022-09-21T01:34:31.472Z,80.46
2022-09-21T01:39:37.108Z,80.83
2022-09-21T01:44:43.559Z,81.20
2022-09-21T01:49:51.835Z,80.74
2022-09-21T01:55:01.023Z,80.38
2022-09-21T02:00:08.247Z,80.87
2022-09-21T02:05:31.620Z,80.43
2022-09-21T02:10:39.187Z,81.17
2022-09-21T02:15:59.059Z,81.36
2022-09-21T02:21:05.975Z,81.88
2022-09-21T02:26:15.406Z,81.00
2022-09-21T02:31:27.218Z,80.74
2022-09-21T02:36:37.100Z,81.18
2022-09-21T02:41:45.698Z,82.14
2022-09-21T02:46:56.020Z,81.96
2022-09-21T02:52:02.764Z,81.84
2022-09-21T02:57:06.828Z,81.93
2022-09-21T03:02:13.514Z,81.25
2022-09-21T03:07:17.065Z,82.93
2022-09-21T03:12:20.558Z,81.83
2022-09-21T03:17:24.920Z,81.15
2022-09-21T03:22:27.834Z,81.08
2022-09-21T03:27:30.948Z,81.46
2022-09-21T03:32:35.202Z,80.88
2022-09-21T03:37:41.196Z,80.53
2022-09-21T03:42:45.186Z,80.74
2022-09-21T03:47:49.859Z,80.75
2022-09-21T03:52:52.987Z,80.00
2022-09-21T03:57:55.893Z,80.56
2022-09-21T04:03:02.193Z,80.27
2022-09-21T04:08:05.147Z,80.78
2022-09-21T04:13:08.048Z,81.05
2022-09-21T04:18:13.551Z,81.53
2022-09-21T04:23:16.739Z,81.63
2022-09-21T04:28:19.675Z,81.12
2022-09-21T04:33:24.442Z,81.14
2022-09-21T04:38:27.356Z,80.68
2022-09-21T04:43:30.461Z,80.30
2022-09-21T04:48:34.744Z,80.44
2022-09-21T04:53:39.851Z,80.52
2022-09-21T04:58:42.779Z,80.55
2022-09-21T05:03:47.144Z,80.33
2022-09-21T05:09:07.863Z,80.73
2022-09-21T05:14:11.758Z,81.08
2022-09-21T05:19:16.103Z,81.23
2022-09-21T05:24:19.008Z,80.50
2022-09-21T05:29:22.504Z,80.59
2022-09-21T05:34:41.619Z,80.98
2022-09-21T05:39:45.177Z,81.33
2022-09-21T05:44:49.583Z,81.50
2022-09-21T05:50:05.913Z,80.89
2022-09-21T05:55:27.584Z,80.56
2022-09-21T06:00:40.646Z,80.67
2022-09-21T06:05:45.367Z,81.45
2022-09-21T06:10:48.337Z,80.18
2022-09-21T06:15:51.256Z,79.63
2022-09-21T06:20:55.569Z,79.90
2022-09-21T06:25:58.916Z,78.62
2022-09-21T06:31:01.988Z,79.33
2022-09-21T06:36:06.904Z,78.36
2022-09-21T06:41:09.858Z,78.95
2022-09-21T06:46:12.854Z,77.45
2022-09-21T06:51:17.291Z,77.69
2022-09-21T06:56:20.270Z,77.45
2022-09-21T07:01:23.524Z,76.69
2022-09-21T07:06:29.436Z,76.54
2022-09-21T07:11:32.402Z,75.82
2022-09-21T07:16:36.032Z,75.90
2022-09-21T07:21:40.374Z,75.12
2022-09-21T07:26:43.271Z,74.80
2022-09-21T07:31:46.383Z,74.55
2022-09-21T07:36:50.697Z,73.32
2022-09-21T07:41:53.590Z,73.06
2022-09-21T07:46:56.523Z,72.40
2022-09-21T07:52:04.471Z,73.52
2022-09-21T07:57:26.727Z,72.00
2022-09-21T08:02:29.700Z,72.47
2022-09-21T08:07:35.261Z,71.55
2022-09-21T08:12:38.219Z,70.79
2022-09-21T08:17:41.245Z,70.31
2022-09-21T08:22:45.570Z,67.04
2022-09-21T08:27:49.263Z,70.96
2022-09-21T08:32:55.447Z,68.20
2022-09-21T08:37:59.703Z,70.18
2022-09-21T08:43:09.006Z,68.93
2022-09-21T08:48:20.230Z,66.39
2022-09-21T08:53:32.103Z,64.98
2022-09-21T08:58:35.014Z,62.76
2022-09-21T09:03:54.714Z,63.91
2022-09-21T09:09:31.702Z,63.90
2022-09-21T09:14:50.803Z,63.43
2022-09-21T09:20:02.577Z,63.17
2022-09-21T09:25:16.159Z,63.48
2022-09-21T09:30:23.131Z,61.62
2022-09-21T09:35:29.308Z,62.83
2022-09-21T09:40:50.863Z,63.07
2022-09-21T09:46:04.573Z,63.85
2022-09-21T09:51:12.422Z,64.36
2022-09-21T09:56:19.030Z,62.26
2022-09-21T10:01:39.347Z,63.09
2022-09-21T10:06:46.448Z,62.85
2022-09-21T10:11:52.530Z,67.96
2022-09-21T10:16:59.213Z,66.19
2022-09-21T10:22:05.118Z,65.17
2022-09-21T10:27:15.134Z,67.48
2022-09-21T10:32:24.638Z,64.22
2022-09-21T10:37:29.784Z,64.39
2022-09-21T10:42:38.679Z,60.17
2022-09-21T10:47:45.296Z,65.21
2022-09-21T10:52:48.460Z,65.21
2022-09-21T10:57:53.747Z,66.48
2022-09-21T11:02:56.982Z,68.41
2022-09-21T11:08:06.618Z,63.96
2022-09-21T11:13:32.437Z,63.48
2022-09-21T11:18:46.521Z,63.67
2022-09-21T11:24:03.202Z,65.71
2022-09-21T11:29:13.507Z,60.83
2022-09-21T11:34:40.472Z,59.10
2022-09-21T11:39:59.328Z,62.32
2022-09-21T11:45:07.660Z,60.47
2022-09-21T11:50:30.849Z,62.30
2022-09-21T11:55:48.681Z,60.00
2022-09-21T12:01:02.840Z,57.38
2022-09-21T12:06:32.327Z,59.48
2022-09-21T12:11:40.406Z,58.36
2022-09-21T12:16:52.094Z,57.67
2022-09-21T12:22:00.567Z,57.26
2022-09-21T12:27:10.821Z,59.20
2022-09-21T12:32:22.662Z,56.42
2022-09-21T12:37:31.762Z,58.89
2022-09-21T12:42:41.547Z,58.08
2022-09-21T12:47:58.183Z,55.92
2022-09-21T12:53:01.968Z,55.63
2022-09-21T12:58:16.325Z,55.42
2022-09-21T13:03:31.151Z,59.50
2022-09-21T13:08:38.576Z,59.15
2022-09-21T13:13:51.305Z,60.10
2022-09-21T13:18:59.902Z,57.52
2022-09-21T13:24:04.810Z,61.75
2022-09-21T13:29:31.076Z,66.42
2022-09-21T13:34:37.348Z,67.43
2022-09-21T13:39:44.434Z,65.84
2022-09-21T13:44:48.513Z,61.20
2022-09-21T13:49:59.709Z,58.62
2022-09-21T13:55:06.096Z,57.48
2022-09-21T14:00:36.132Z,56.14
2022-09-21T14:05:44.981Z,54.61
2022-09-21T14:10:53.026Z,54.44
2022-09-21T14:15:56.022Z,57.80
2022-09-21T14:21:19.976Z,59.85
2022-09-21T14:26:34.425Z,55.96
2022-09-21T14:31:39.945Z,54.64
2022-09-21T14:36:50.025Z,55.17
2022-09-21T14:41:55.961Z,59.96
2022-09-21T14:47:25.429Z,62.26
2022-09-21T14:52:40.877Z,61.58
2022-09-21T14:58:00.849Z,60.43
2022-09-21T15:03:30.753Z,60.35
2022-09-21T15:09:08.573Z,61.39
2022-09-21T15:14:23.949Z,60.27
2022-09-21T15:19:28.456Z,59.55
2022-09-21T15:24:35.392Z,58.65
2022-09-21T15:29:39.441Z,58.25
2022-09-21T15:34:42.444Z,58.35
2022-09-21T15:39:47.906Z,58.15
2022-09-21T15:44:55.249Z,59.72
2022-09-21T15:49:58.964Z,60.41
2022-09-21T15:55:12.432Z,59.51
2022-09-21T16:00:25.468Z,61.58
2022-09-21T16:05:31.137Z,61.24
2022-09-21T16:10:42.007Z,62.46
2022-09-21T16:16:01.661Z,60.90
2022-09-21T16:21:14.801Z,60.73
2022-09-21T16:26:26.024Z,61.55
2022-09-21T16:31:34.365Z,62.30
2022-09-21T16:36:42.599Z,63.91
2022-09-21T16:41:53.522Z,64.92
2022-09-21T16:46:59.935Z,65.27
2022-09-21T16:52:03.581Z,68.47
2022-09-21T16:57:07.996Z,68.52
2022-09-21T17:02:14.159Z,68.13
2022-09-21T17:07:18.945Z,67.70
2022-09-21T17:12:23.977Z,68.73
2022-09-21T17:17:27.109Z,69.07
2022-09-21T17:22:31.257Z,69.27
2022-09-21T17:27:35.560Z,69.68
2022-09-21T17:32:38.997Z,69.99
2022-09-21T17:37:42.004Z,70.75
2022-09-21T17:42:48.441Z,70.74
2022-09-21T17:47:52.129Z,71.61
2022-09-21T17:53:13.346Z,71.95
2022-09-21T17:58:33.717Z,72.12
2022-09-21T18:03:41.135Z,72.64
2022-09-21T18:08:44.781Z,72.67
2022-09-21T18:13:59.521Z,72.97
2022-09-21T18:19:21.684Z,72.58
2022-09-21T18:24:31.181Z,73.81
2022-09-21T18:29:40.371Z,73.57
2022-09-21T18:35:23.682Z,73.97
2022-09-21T18:40:38.191Z,74.69
2022-09-21T18:45:46.219Z,74.61
2022-09-21T18:50:58.400Z,74.38
2022-09-21T18:56:01.842Z,74.68
2022-09-21T19:01:07.091Z,75.29
2022-09-21T19:06:32.692Z,76.30
2022-09-21T19:11:44.024Z,75.76
2022-09-21T19:17:04.146Z,75.49
2022-09-21T19:22:15.674Z,75.99
2022-09-21T19:27:30.911Z,75.71
2022-09-21T19:32:40.516Z,77.09
2022-09-21T19:37:43.885Z,76.00
2022-09-21T19:43:06.193Z,76.45
2022-09-21T19:48:14.967Z,76.58
2022-09-21T19:53:35.731Z,76.07
2022-09-21T19:58:56.571Z,78.29
2022-09-21T20:04:02.058Z,77.44
2022-09-21T20:09:11.820Z,76.19
2022-09-21T20:14:24.243Z,76.60
2022-09-21T20:19:46.415Z,76.80
2022-09-21T20:24:58.064Z,76.73
2022-09-21T20:30:01.094Z,76.98
2022-09-21T20:35:15.309Z,76.82
2022-09-21T20:40:20.351Z,77.04
2022-09-21T20:45:23.755Z,76.46
2022-09-21T20:50:30.410Z,76.82
2022-09-21T20:55:33.372Z,76.92
2022-09-21T21:00:36.738Z,77.35
2022-09-21T21:05:41.223Z,77.09
2022-09-21T21:10:47.512Z,76.87
2022-09-21T21:15:53.996Z,76.96
2022-09-21T21:21:02.558Z,77.41
2022-09-21T21:26:05.810Z,77.62
2022-09-21T21:31:08.730Z,78.28
2022-09-21T21:36:14.961Z,78.02
2022-09-21T21:41:17.930Z,77.94
2022-09-21T21:46:20.950Z,78.16
2022-09-21T21:51:25.299Z,78.64
2022-09-21T21:56:28.244Z,78.37
2022-09-21T22:01:31.409Z,79.07
2022-09-21T22:06:37.699Z,79.20
2022-09-21T22:11:41.587Z,78.96
2022-09-21T22:16:44.605Z,80.90
2022-09-21T22:21:53.811Z,80.29
2022-09-21T22:26:57.211Z,81.19
2022-09-21T22:32:00.597Z,80.22
2022-09-21T22:37:04.906Z,80.38
2022-09-21T22:42:07.888Z,81.45
2022-09-21T22:47:10.804Z,81.16
2022-09-21T22:52:15.067Z,80.49
2022-09-21T22:57:17.979Z,80.27
2022-09-21T23:02:20.908Z,81.38
2022-09-21T23:07:25.243Z,81.30
2022-09-21T23:12:28.138Z,81.42
2022-09-21T23:17:31.313Z,81.08
2022-09-21T23:22:35.678Z,83.28
2022-09-21T23:27:39.231Z,82.90
2022-09-21T23:32:42.165Z,82.22
2022-09-21T23:37:46.434Z,82.38
2022-09-21T23:42:49.375Z,83.10
2022-09-21T23:47:52.340Z,84.98
2022-09-21T23:52:56.612Z,82.96
2022-09-21T23:57:59.484Z,82.49
